Time;durP1;ratioP1;P1;durP2;ratioP2;P2;SDS_P1;SDS_P2;PMS_P1;PMS_P2;Temp;Humidity;BMP_temperature;BMP_pressure;BME280_temperature;BME280_humidity;BME280_pressure;Samples;Min_cycle;Max_cycle;Signal;HPM_P1;HPM_P2
2024/03/06 00:00:13;;;;;;;4.43;1.73;;;10.90;94.60;;;;;;5070491;28;20244;-59
2024/03/06 00:02:40;;;;;;;6.90;1.77;;;10.90;94.60;;;;;;5069035;28;20217;-59
2024/03/06 00:05:08;;;;;;;5.30;1.80;;;10.90;94.60;;;;;;5072478;28;20201;-59
2024/03/06 00:07:35;;;;;;;7.47;1.90;;;10.80;94.50;;;;;;5071137;28;20283;-59
2024/03/06 00:10:04;;;;;;;3.50;1.63;;;10.80;94.60;;;;;;5072616;28;20289;-59
2024/03/06 00:12:32;;;;;;;6.67;2.00;;;10.80;94.50;;;;;;5070125;28;20212;-59
2024/03/06 00:15:00;;;;;;;5.93;1.87;;;10.70;94.40;;;;;;5071456;28;20702;-59
2024/03/06 00:17:27;;;;;;;4.87;1.73;;;10.60;94.30;;;;;;5067571;28;20346;-59
2024/03/06 00:19:54;;;;;;;4.70;1.73;;;10.50;94.30;;;;;;5072040;28;20253;-59
2024/03/06 00:22:21;;;;;;;9.10;2.23;;;10.40;94.50;;;;;;5073840;28;20224;-59
2024/03/06 00:24:51;;;;;;;8.60;2.00;;;10.30;94.70;;;;;;5073413;28;20262;-59
2024/03/06 00:27:18;;;;;;;7.27;1.80;;;10.30;94.90;;;;;;5073272;28;20200;-59
2024/03/06 00:29:45;;;;;;;5.60;1.60;;;10.20;95.00;;;;;;5074652;28;20277;-59
2024/03/06 00:32:12;;;;;;;9.07;2.00;;;10.20;95.10;;;;;;5074146;28;20205;-59
2024/03/06 00:34:40;;;;;;;4.47;1.80;;;10.20;95.20;;;;;;5076051;28;20570;-59
2024/03/06 00:37:07;;;;;;;4.97;1.30;;;10.20;95.20;;;;;;5075530;28;20289;-59
2024/03/06 00:39:35;;;;;;;4.30;1.77;;;10.20;95.30;;;;;;5073875;28;20528;-59
2024/03/06 00:42:02;;;;;;;7.13;1.83;;;10.20;95.30;;;;;;5074644;28;20237;-59
2024/03/06 00:44:30;;;;;;;5.93;2.17;;;10.20;95.20;;;;;;5073827;28;20534;-59
2024/03/06 00:46:57;;;;;;;4.87;1.53;;;10.20;95.10;;;;;;5074199;28;20236;-59
2024/03/06 00:49:24;;;;;;;10.17;1.80;;;10.20;95.00;;;;;;5074699;28;20529;-59
2024/03/06 00:51:51;;;;;;;12.13;1.90;;;10.10;94.80;;;;;;5075292;28;20203;-59
2024/03/06 00:54:18;;;;;;;5.83;1.33;;;10.10;94.70;;;;;;5071001;28;20210;-59
2024/03/06 00:56:45;;;;;;;5.13;1.67;;;10.10;94.50;;;;;;5074001;28;20216;-59
2024/03/06 00:59:12;;;;;;;4.33;1.43;;;10.20;94.40;;;;;;5071289;28;21677;-59
2024/03/06 01:01:41;;;;;;;4.63;1.37;;;10.30;94.20;;;;;;5089324;28;20240;-60
2024/03/06 01:04:08;;;;;;;4.20;1.77;;;10.40;94.00;;;;;;5073051;28;20276;-59
2024/03/06 01:06:35;;;;;;;5.27;1.50;;;10.40;93.60;;;;;;5071582;28;20213;-59
2024/03/06 01:09:02;;;;;;;7.87;1.70;;;10.50;93.10;;;;;;5071174;28;20656;-59
2024/03/06 01:11:29;;;;;;;8.30;1.67;;;10.40;92.90;;;;;;5074645;28;20220;-59
2024/03/06 01:13:57;;;;;;;6.93;1.80;;;10.40;92.70;;;;;;5071677;28;20212;-59
2024/03/06 01:16:24;;;;;;;7.20;2.13;;;10.40;92.80;;;;;;5074616;28;20597;-59
2024/03/06 01:18:51;;;;;;;8.13;2.07;;;10.50;92.40;;;;;;5074572;28;20214;-59
2024/03/06 01:21:18;;;;;;;9.17;1.60;;;10.50;92.00;;;;;;5074266;28;20217;-59
2024/03/06 01:23:45;;;;;;;6.20;2.07;;;10.60;91.80;;;;;;5073967;28;20303;-59
2024/03/06 01:26:12;;;;;;;6.57;1.50;;;10.60;91.70;;;;;;5074896;28;20274;-59
2024/03/06 01:28:39;;;;;;;4.53;1.50;;;10.60;91.60;;;;;;5074603;28;20190;-59
2024/03/06 01:31:07;;;;;;;2.67;1.33;;;10.50;91.30;;;;;;5072489;28;20206;-59
2024/03/06 01:33:34;;;;;;;2.00;1.20;;;10.60;91.30;;;;;;5074896;28;20212;-59
2024/03/06 01:36:01;;;;;;;7.63;1.30;;;10.60;91.20;;;;;;5074267;28;20267;-59
2024/03/06 01:38:29;;;;;;;6.93;1.70;;;10.60;91.20;;;;;;5072480;28;20201;-59
2024/03/06 01:40:56;;;;;;;7.53;1.20;;;10.60;91.10;;;;;;5070366;28;20201;-59
2024/03/06 01:43:25;;;;;;;6.60;1.20;;;10.50;91.10;;;;;;5073424;28;20275;-59
2024/03/06 01:45:53;;;;;;;5.80;1.70;;;10.50;91.00;;;;;;5072371;28;20216;-59
2024/03/06 01:48:29;;;;;;;6.27;1.67;;;10.40;91.00;;;;;;5073136;28;20239;-59
2024/03/06 01:50:59;;;;;;;6.13;1.43;;;10.40;90.80;;;;;;5072785;28;20201;-59
2024/03/06 01:53:30;;;;;;;4.23;1.13;;;10.20;90.80;;;;;;5074196;28;20263;-59
2024/03/06 01:55:57;;;;;;;6.27;1.50;;;10.10;90.90;;;;;;5073307;28;20284;-59
2024/03/06 01:58:25;;;;;;;4.93;1.53;;;10.00;90.70;;;;;;5070684;28;20220;-59
2024/03/06 02:00:52;;;;;;;4.20;1.67;;;10.00;90.70;;;;;;5073225;28;20203;-59
2024/03/06 02:03:21;;;;;;;3.50;1.13;;;9.90;90.80;;;;;;5072492;28;20197;-59
2024/03/06 02:05:52;;;;;;;1.70;1.43;;;9.80;90.80;;;;;;5071063;28;20640;-59
2024/03/06 02:08:19;;;;;;;5.53;1.30;;;9.70;91.00;;;;;;5072784;28;20837;-59
2024/03/06 02:10:47;;;;;;;6.77;1.70;;;9.60;91.10;;;;;;5071898;28;20188;-60
2024/03/06 02:13:14;;;;;;;3.90;1.07;;;9.60;91.30;;;;;;5073389;28;20202;-59
2024/03/06 02:15:44;;;;;;;7.10;1.50;;;9.60;91.50;;;;;;5072079;28;20291;-59
2024/03/06 02:18:11;;;;;;;5.40;1.30;;;9.60;91.60;;;;;;5073507;28;20292;-59
2024/03/06 02:20:42;;;;;;;5.33;1.30;;;9.50;91.60;;;;;;5071138;28;20204;-59
2024/03/06 02:23:09;;;;;;;4.23;1.70;;;9.50;91.60;;;;;;5073577;28;20240;-59
2024/03/06 02:25:36;;;;;;;7.63;1.63;;;9.60;91.50;;;;;;5072066;28;20263;-59
2024/03/06 02:28:06;;;;;;;4.30;1.30;;;9.60;91.30;;;;;;5070713;28;20189;-59
2024/03/06 02:30:36;;;;;;;6.23;1.60;;;9.60;91.10;;;;;;5072757;28;20209;-59
2024/03/06 02:33:06;;;;;;;10.23;1.57;;;9.70;91.00;;;;;;5070146;28;20196;-59
2024/03/06 02:35:35;;;;;;;4.40;1.03;;;9.60;90.80;;;;;;5072406;28;20311;-59
2024/03/06 02:38:05;;;;;;;4.73;1.40;;;9.60;90.80;;;;;;5072639;28;20571;-59
2024/03/06 02:40:33;;;;;;;2.43;0.90;;;9.60;90.80;;;;;;5068978;28;20258;-59
2024/03/06 02:43:00;;;;;;;11.33;1.80;;;9.70;90.80;;;;;;5072344;28;20228;-59
2024/03/06 02:45:27;;;;;;;4.93;1.20;;;9.70;90.60;;;;;;5067159;28;20740;-59
2024/03/06 02:47:54;;;;;;;8.17;1.27;;;9.80;90.60;;;;;;5070939;28;20211;-60
2024/03/06 02:50:23;;;;;;;5.73;1.50;;;9.80;90.50;;;;;;5072687;28;20204;-59
2024/03/06 02:52:51;;;;;;;5.00;1.23;;;9.80;90.60;;;;;;5070149;28;20215;-59
2024/03/06 02:55:19;;;;;;;7.03;2.00;;;9.80;90.70;;;;;;5069848;28;20696;-59
2024/03/06 02:57:46;;;;;;;5.63;1.87;;;9.80;90.70;;;;;;5069225;28;20213;-59
2024/03/06 03:00:15;;;;;;;3.23;1.30;;;9.70;90.60;;;;;;5072034;28;20294;-59
2024/03/06 03:02:43;;;;;;;5.13;1.20;;;9.70;90.60;;;;;;5070263;28;20292;-59
2024/03/06 03:05:10;;;;;;;3.97;1.03;;;9.70;90.60;;;;;;5072691;28;20205;-59
2024/03/06 03:07:37;;;;;;;5.03;1.20;;;9.70;90.60;;;;;;5069029;28;20212;-59
2024/03/06 03:10:06;;;;;;;5.37;0.97;;;9.70;90.70;;;;;;5072718;28;20208;-59
2024/03/06 03:12:33;;;;;;;4.73;1.40;;;9.70;90.90;;;;;;5070221;28;20195;-59
2024/03/06 03:15:01;;;;;;;9.27;1.63;;;9.60;91.10;;;;;;5071053;28;20201;-59
2024/03/06 03:17:28;;;;;;;6.23;0.97;;;9.50;91.30;;;;;;5072740;28;20201;-59
2024/03/06 03:19:55;;;;;;;8.03;2.27;;;9.50;91.40;;;;;;5071381;28;20199;-59
2024/03/06 03:22:23;;;;;;;2.23;0.83;;;9.50;91.60;;;;;;5070571;28;20604;-59
2024/03/06 03:24:50;;;;;;;4.77;1.33;;;9.50;91.70;;;;;;5072208;28;20200;-59
2024/03/06 03:27:17;;;;;;;11.47;1.47;;;9.40;91.70;;;;;;5069575;28;20192;-59
2024/03/06 03:29:44;;;;;;;5.73;1.50;;;9.40;91.60;;;;;;5070390;28;20209;-59
2024/03/06 03:32:12;;;;;;;7.30;1.53;;;9.30;91.50;;;;;;5073139;28;20200;-59
2024/03/06 03:34:42;;;;;;;3.50;1.03;;;9.30;91.40;;;;;;5072490;28;20208;-60
2024/03/06 03:37:14;;;;;;;4.20;1.30;;;9.30;91.40;;;;;;5073393;28;20227;-60
2024/03/06 03:39:44;;;;;;;9.30;1.70;;;9.20;91.20;;;;;;5088136;28;20210;-59
2024/03/06 03:42:14;;;;;;;6.87;1.50;;;9.20;91.20;;;;;;5071763;28;20570;-59
2024/03/06 03:44:44;;;;;;;6.67;1.70;;;9.20;91.40;;;;;;5087112;28;20225;-59
2024/03/06 03:47:13;;;;;;;3.30;1.43;;;9.20;91.50;;;;;;5072386;28;20701;-59
2024/03/06 03:49:40;;;;;;;6.33;1.17;;;9.10;91.50;;;;;;5071661;28;20529;-59
2024/03/06 03:52:07;;;;;;;7.13;1.37;;;9.10;91.70;;;;;;5069707;28;20217;-60
2024/03/06 03:54:35;;;;;;;7.30;1.30;;;9.10;91.70;;;;;;5072394;28;20211;-59
2024/03/06 03:57:03;;;;;;;2.30;1.20;;;9.10;91.70;;;;;;5079408;28;20200;-59
2024/03/06 03:59:32;;;;;;;3.43;1.77;;;9.20;91.70;;;;;;5068485;28;20243;-59
2024/03/06 04:02:01;;;;;;;6.60;1.30;;;9.20;91.60;;;;;;5070716;28;20566;-59
2024/03/06 04:04:30;;;;;;;3.70;1.53;;;9.20;91.50;;;;;;5070328;28;20536;-59
2024/03/06 04:07:01;;;;;;;3.20;1.20;;;9.20;91.30;;;;;;5066225;28;20195;-59
2024/03/06 04:09:30;;;;;;;4.63;1.33;;;9.20;91.10;;;;;;5070147;28;20644;-59
2024/03/06 04:11:59;;;;;;;3.60;1.23;;;9.20;91.00;;;;;;5070400;28;20294;-59
2024/03/06 04:14:27;;;;;;;6.13;0.97;;;9.20;90.90;;;;;;5069237;28;20614;-59
2024/03/06 04:16:57;;;;;;;7.63;1.03;;;9.10;90.80;;;;;;5058917;28;20558;-59
2024/03/06 04:19:26;;;;;;;6.93;1.23;;;9.10;90.80;;;;;;5087806;28;20227;-60
2024/03/06 04:21:54;;;;;;;3.67;1.40;;;9.00;90.60;;;;;;5073941;28;20216;-60
2024/03/06 04:24:23;;;;;;;10.17;1.60;;;8.90;90.50;;;;;;5071152;28;20258;-60
2024/03/06 04:26:52;;;;;;;3.20;1.03;;;8.90;90.50;;;;;;5070164;28;20221;-58
2024/03/06 04:29:19;;;;;;;5.57;1.27;;;8.80;90.70;;;;;;5082948;28;20280;-59
2024/03/06 04:31:48;;;;;;;5.17;1.37;;;8.80;90.80;;;;;;5063445;28;20202;-59
2024/03/06 04:34:19;;;;;;;3.70;1.30;;;8.80;90.90;;;;;;5070483;28;20219;-59
2024/03/06 04:36:48;;;;;;;9.00;1.10;;;8.80;90.90;;;;;;5052750;28;20230;-59
2024/03/06 04:39:15;;;;;;;7.70;1.47;;;8.90;90.90;;;;;;5071366;28;20556;-59
2024/03/06 04:41:42;;;;;;;4.27;1.30;;;8.90;91.00;;;;;;5071904;28;20301;-59
2024/03/06 04:44:09;;;;;;;4.20;0.97;;;8.90;91.10;;;;;;5071867;28;20203;-59
2024/03/06 04:46:36;;;;;;;3.30;1.30;;;8.80;91.10;;;;;;5070170;28;20214;-59
2024/03/06 04:49:03;;;;;;;4.83;1.43;;;8.80;91.20;;;;;;5071413;28;20180;-59
2024/03/06 04:51:30;;;;;;;2.67;0.80;;;8.80;91.40;;;;;;5071216;28;20314;-59
2024/03/06 04:53:57;;;;;;;4.03;0.90;;;8.70;91.50;;;;;;5070092;28;20666;-60
2024/03/06 04:56:24;;;;;;;4.07;1.23;;;8.60;91.50;;;;;;5071916;28;20194;-59
2024/03/06 04:58:52;;;;;;;2.27;1.00;;;8.50;91.70;;;;;;5069197;28;20256;-59
2024/03/06 05:01:19;;;;;;;3.97;1.17;;;8.50;91.80;;;;;;5069164;28;20194;-59
2024/03/06 05:03:46;;;;;;;5.83;2.57;;;8.40;91.90;;;;;;5070853;28;20558;-59
2024/03/06 05:06:31;;;;;;;5.13;1.30;;;8.40;92.10;;;;;;5071571;28;20498;-59
2024/03/06 05:09:15;;;;;;;5.90;1.17;;;8.30;92.20;;;;;;5074702;28;20276;-59
2024/03/06 05:12:00;;;;;;;7.80;1.60;;;8.30;92.30;;;;;;5074287;28;20579;-59
2024/03/06 05:14:44;;;;;;;5.67;1.30;;;8.30;92.40;;;;;;5072827;28;20189;-59
2024/03/06 05:17:29;;;;;;;4.03;1.20;;;8.30;92.50;;;;;;5074375;28;20247;-59
2024/03/06 05:20:14;;;;;;;3.87;1.13;;;8.20;92.70;;;;;;5073054;28;20203;-59
2024/03/06 05:22:59;;;;;;;7.37;1.43;;;8.20;92.70;;;;;;5074765;28;20218;-59
2024/03/06 05:25:44;;;;;;;1.97;1.23;;;8.10;92.70;;;;;;5074063;28;20192;-59
2024/03/06 05:28:29;;;;;;;2.93;0.83;;;8.10;92.90;;;;;;5071604;28;20212;-59
2024/03/06 05:31:20;;;;;;;5.50;1.30;;;8.10;92.90;;;;;;5073334;28;20733;-59
2024/03/06 05:34:05;;;;;;;7.70;1.80;;;8.10;93.10;;;;;;5073973;28;20180;-59
2024/03/06 05:36:50;;;;;;;4.37;1.47;;;8.10;93.10;;;;;;5073768;28;20227;-59
2024/03/06 05:39:35;;;;;;;4.67;1.63;;;8.10;93.10;;;;;;5072674;28;20193;-59
2024/03/06 05:42:19;;;;;;;4.30;1.20;;;8.10;93.10;;;;;;5074119;28;20199;-59
2024/03/06 05:45:10;;;;;;;8.00;2.47;;;8.00;92.90;;;;;;5074191;28;20517;-59
2024/03/06 05:47:54;;;;;;;11.57;2.80;;;8.00;93.00;;;;;;5073842;28;20181;-59
2024/03/06 05:50:39;;;;;;;9.90;4.60;;;8.00;93.10;;;;;;5071628;28;20198;-59
2024/03/06 05:53:23;;;;;;;8.07;4.07;;;7.90;93.30;;;;;;5073967;28;20182;-59
2024/03/06 05:56:08;;;;;;;8.73;5.67;;;7.90;93.40;;;;;;5071598;28;20202;-59
2024/03/06 05:58:54;;;;;;;8.47;5.50;;;7.90;93.60;;;;;;5087609;28;20221;-59
2024/03/06 06:01:21;;;;;;;12.80;5.63;;;7.90;94.10;;;;;;5073608;28;20285;-59
2024/03/06 06:03:49;;;;;;;8.80;5.90;;;7.90;94.10;;;;;;5073592;28;20202;-59
2024/03/06 06:06:19;;;;;;;21.90;7.13;;;7.90;94.20;;;;;;5074056;28;20399;-60
2024/03/06 06:08:46;;;;;;;10.97;7.47;;;7.90;94.50;;;;;;5072154;28;20217;-59
2024/03/06 06:11:13;;;;;;;10.40;7.10;;;8.00;94.70;;;;;;5071344;28;20204;-59
2024/03/06 06:13:40;;;;;;;12.33;6.97;;;8.10;94.80;;;;;;5072160;28;20565;-59
2024/03/06 06:16:07;;;;;;;11.37;7.00;;;8.20;94.60;;;;;;5071273;28;20225;-59
2024/03/06 06:18:34;;;;;;;11.10;7.70;;;8.20;94.50;;;;;;5073761;28;20627;-59
2024/03/06 06:21:02;;;;;;;9.57;7.57;;;8.30;94.50;;;;;;5073616;28;20256;-59
2024/03/06 06:23:30;;;;;;;10.07;7.07;;;8.30;94.90;;;;;;5072398;28;20273;-59
2024/03/06 06:25:58;;;;;;;8.47;6.67;;;8.40;94.80;;;;;;5071139;28;20207;-59
2024/03/06 06:28:25;;;;;;;11.87;7.97;;;8.60;94.70;;;;;;5073350;28;20202;-59
2024/03/06 06:30:52;;;;;;;14.07;8.57;;;8.70;94.50;;;;;;5072316;28;20688;-59
2024/03/06 06:33:20;;;;;;;14.27;9.13;;;8.90;94.60;;;;;;5071000;28;20240;-59
2024/03/06 06:35:48;;;;;;;9.87;8.07;;;9.10;94.20;;;;;;5070278;28;20205;-59
2024/03/06 06:38:15;;;;;;;12.17;9.23;;;9.20;94.00;;;;;;5072042;28;20214;-59
2024/03/06 06:40:42;;;;;;;10.90;9.17;;;9.20;93.90;;;;;;5070244;28;20277;-59
2024/03/06 06:43:10;;;;;;;13.40;9.33;;;9.30;93.80;;;;;;5069250;28;20353;-59
2024/03/06 06:45:37;;;;;;;13.07;9.33;;;9.30;94.00;;;;;;5070211;28;20626;-58
2024/03/06 06:48:05;;;;;;;13.43;9.73;;;9.20;94.10;;;;;;5071222;28;20282;-58
2024/03/06 06:50:33;;;;;;;14.87;10.70;;;9.20;94.30;;;;;;5072910;28;20192;-58
2024/03/06 06:53:00;;;;;;;14.73;10.37;;;9.10;94.60;;;;;;5071191;28;20276;-58
2024/03/06 06:55:28;;;;;;;12.20;9.30;;;9.10;94.90;;;;;;5071723;28;20270;-58
2024/03/06 06:57:55;;;;;;;13.50;10.40;;;9.10;95.20;;;;;;5070145;28;20207;-60
2024/03/06 07:00:25;;;;;;;13.50;10.77;;;9.10;95.30;;;;;;5069323;28;20341;-59
2024/03/06 07:02:52;;;;;;;15.57;11.60;;;9.10;95.50;;;;;;5070778;28;20211;-59
2024/03/06 07:05:19;;;;;;;17.67;12.17;;;9.00;95.50;;;;;;5070059;28;20207;-59
2024/03/06 07:07:46;;;;;;;15.70;12.03;;;9.00;95.80;;;;;;5069101;28;20209;-59
2024/03/06 07:10:15;;;;;;;15.67;11.37;;;9.00;96.10;;;;;;5069114;28;20279;-59
2024/03/06 07:12:42;;;;;;;18.33;13.03;;;9.10;96.30;;;;;;5069156;28;20195;-58
2024/03/06 07:15:09;;;;;;;16.57;12.23;;;9.10;96.50;;;;;;5072483;28;20295;-59
2024/03/06 07:17:36;;;;;;;16.20;11.47;;;9.20;96.70;;;;;;5071644;28;20211;-59
2024/03/06 07:20:08;;;;;;;13.90;10.50;;;9.30;96.80;;;;;;5068066;28;20207;-59
2024/03/06 07:22:35;;;;;;;12.63;11.33;;;9.30;96.80;;;;;;5072746;28;20639;-59
2024/03/06 07:25:02;;;;;;;15.43;10.93;;;9.40;96.90;;;;;;5071636;28;20201;-59
2024/03/06 07:27:29;;;;;;;13.20;10.60;;;9.50;97.20;;;;;;5070346;28;20272;-59
2024/03/06 07:29:57;;;;;;;14.23;11.30;;;9.70;97.30;;;;;;5070633;28;20230;-59
2024/03/06 07:32:25;;;;;;;12.10;10.70;;;9.80;97.20;;;;;;5071136;28;20633;-59
2024/03/06 07:34:52;;;;;;;15.47;10.87;;;9.90;97.20;;;;;;5071203;28;20513;-59
2024/03/06 07:37:19;;;;;;;15.47;11.20;;;9.90;96.60;;;;;;5071480;28;20515;-59
2024/03/06 07:39:46;;;;;;;21.17;13.27;;;10.00;96.70;;;;;;5070024;28;20279;-59
2024/03/06 07:42:17;;;;;;;17.93;13.93;;;10.00;96.70;;;;;;5071765;28;20222;-59
2024/03/06 07:44:45;;;;;;;21.90;14.27;;;10.10;96.90;;;;;;5071458;28;20208;-59
2024/03/06 07:47:14;;;;;;;17.57;14.07;;;10.20;97.00;;;;;;5070570;28;20193;-59
2024/03/06 07:49:41;;;;;;;18.87;13.87;;;10.30;96.90;;;;;;5070862;28;20204;-59
2024/03/06 07:52:09;;;;;;;23.27;16.37;;;10.40;96.90;;;;;;5070386;28;20288;-59
2024/03/06 07:54:36;;;;;;;21.50;14.23;;;10.50;96.80;;;;;;5070832;28;20440;-59
2024/03/06 07:57:03;;;;;;;18.80;13.30;;;10.60;96.80;;;;;;5070365;28;20651;-58
2024/03/06 07:59:30;;;;;;;15.07;11.03;;;10.80;96.80;;;;;;5072011;28;20252;-58
2024/03/06 08:01:57;;;;;;;13.20;11.20;;;10.80;96.70;;;;;;5071635;28;20599;-58
2024/03/06 08:04:25;;;;;;;12.60;9.90;;;11.00;96.70;;;;;;5070244;28;20214;-59
2024/03/06 08:06:52;;;;;;;12.00;9.67;;;11.10;96.50;;;;;;5071060;28;20197;-59
2024/03/06 08:09:19;;;;;;;11.57;10.00;;;11.30;96.40;;;;;;5071117;28;20203;-59
2024/03/06 08:11:46;;;;;;;11.23;9.20;;;11.50;96.40;;;;;;5067864;28;20582;-59
2024/03/06 08:14:14;;;;;;;13.63;9.67;;;11.70;96.30;;;;;;5067385;28;20205;-58
2024/03/06 08:16:42;;;;;;;10.40;8.70;;;11.90;96.10;;;;;;5069057;28;20210;-59
2024/03/06 08:19:09;;;;;;;10.37;9.03;;;12.10;95.90;;;;;;5070833;28;20644;-59
2024/03/06 08:21:36;;;;;;;8.93;8.03;;;12.30;95.60;;;;;;5071117;28;20208;-59
2024/03/06 08:24:04;;;;;;;14.60;8.67;;;12.50;95.20;;;;;;5072099;28;20218;-59
2024/03/06 08:26:31;;;;;;;10.80;9.17;;;12.60;95.10;;;;;;5068560;28;20280;-59
2024/03/06 08:28:58;;;;;;;9.70;8.53;;;12.80;94.90;;;;;;5070741;28;20201;-59
2024/03/06 08:31:25;;;;;;;9.37;8.10;;;13.00;94.70;;;;;;5070238;28;20635;-58
2024/03/06 08:33:53;;;;;;;8.70;7.17;;;13.10;94.60;;;;;;5071034;28;20308;-58
2024/03/06 08:36:20;;;;;;;8.17;7.30;;;13.30;94.40;;;;;;5071554;28;20209;-59
2024/03/06 08:38:48;;;;;;;10.00;8.43;;;13.40;94.20;;;;;;5069693;28;20201;-59
2024/03/06 08:41:15;;;;;;;8.83;7.60;;;13.50;93.40;;;;;;5070146;28;20205;-59
2024/03/06 08:43:42;;;;;;;9.77;8.60;;;13.50;93.10;;;;;;5075712;28;20319;-59
2024/03/06 08:46:09;;;;;;;9.57;8.17;;;13.60;93.10;;;;;;5074838;28;20705;-59
2024/03/06 08:48:37;;;;;;;9.87;8.83;;;13.70;93.20;;;;;;5074611;28;20498;-59
2024/03/06 08:51:10;;;;;;;9.17;7.87;;;13.90;93.30;;;;;;5071275;28;20688;-59
2024/03/06 08:53:38;;;;;;;10.40;8.47;;;14.00;93.20;;;;;;5073650;28;20615;-59
2024/03/06 08:56:06;;;;;;;12.13;8.20;;;14.20;93.20;;;;;;5075249;28;20617;-59
2024/03/06 08:58:33;;;;;;;9.00;7.23;;;14.30;92.90;;;;;;5072602;28;20892;-59
2024/03/06 09:01:00;;;;;;;8.90;8.00;;;14.40;92.50;;;;;;5073064;28;20206;-59
2024/03/06 09:03:28;;;;;;;10.83;8.23;;;14.40;92.10;;;;;;5074493;28;20550;-59
2024/03/06 09:05:55;;;;;;;8.70;6.93;;;14.40;92.20;;;;;;5073467;28;20204;-59
2024/03/06 09:08:22;;;;;;;8.83;7.87;;;14.50;92.30;;;;;;5071379;28;20252;-59
2024/03/06 09:10:49;;;;;;;8.73;7.03;;;14.60;92.40;;;;;;5074772;28;20219;-59
2024/03/06 09:13:17;;;;;;;9.10;7.20;;;14.70;92.30;;;;;;5072398;28;20614;-59
2024/03/06 09:15:44;;;;;;;11.60;7.60;;;14.80;91.40;;;;;;5074392;28;20202;-59
2024/03/06 09:18:11;;;;;;;12.27;6.23;;;14.80;91.10;;;;;;5074231;28;20277;-59
2024/03/06 09:20:38;;;;;;;7.30;6.50;;;14.80;91.10;;;;;;5074896;28;20297;-59
2024/03/06 09:23:05;;;;;;;9.33;6.27;;;14.90;91.20;;;;;;5073708;28;20217;-59
2024/03/06 09:25:33;;;;;;;8.67;7.67;;;15.00;91.00;;;;;;5074603;28;20194;-59
2024/03/06 09:28:04;;;;;;;6.73;5.07;;;15.10;90.70;;;;;;5069943;28;20207;-59
2024/03/06 09:30:31;;;;;;;7.67;6.43;;;15.20;90.20;;;;;;5072293;28;20194;-58
2024/03/06 09:32:58;;;;;;;9.50;7.27;;;15.30;90.00;;;;;;5074312;28;20202;-59
2024/03/06 09:35:26;;;;;;;8.87;7.63;;;15.40;89.30;;;;;;5074210;28;20210;-59
2024/03/06 09:37:53;;;;;;;10.50;6.63;;;15.30;88.30;;;;;;5071718;28;20212;-59
2024/03/06 09:40:22;;;;;;;7.63;5.63;;;15.30;89.00;;;;;;5071401;28;20293;-59
2024/03/06 09:42:53;;;;;;;6.43;5.83;;;15.30;89.90;;;;;;5070893;28;20214;-59
2024/03/06 09:45:20;;;;;;;7.73;5.57;;;15.50;90.00;;;;;;5074250;28;20217;-59
2024/03/06 09:47:50;;;;;;;9.27;5.97;;;15.50;87.60;;;;;;5072672;28;20206;-59
2024/03/06 09:50:24;;;;;;;7.17;5.93;;;15.60;87.60;;;;;;5073715;28;20275;-59
2024/03/06 09:52:53;;;;;;;11.20;7.00;;;15.70;88.40;;;;;;5069589;28;20202;-59
2024/03/06 09:55:21;;;;;;;8.77;6.00;;;15.80;88.00;;;;;;5073060;28;20235;-59
2024/03/06 09:57:50;;;;;;;10.97;6.30;;;16.00;87.70;;;;;;5074123;28;20643;-59
2024/03/06 10:00:18;;;;;;;10.60;6.77;;;16.10;88.20;;;;;;5073640;28;20225;-59
2024/03/06 10:03:00;;;;;;;9.93;5.87;;;16.30;87.70;;;;;;5072395;28;20213;-59
2024/03/06 10:05:28;;;;;;;7.87;6.80;;;16.40;87.20;;;;;;5072331;28;20538;-59
2024/03/06 10:07:55;;;;;;;5.87;5.27;;;16.50;86.90;;;;;;5072185;28;20958;-59
2024/03/06 10:10:22;;;;;;;8.63;5.60;;;16.60;85.90;;;;;;5073746;28;20203;-59
2024/03/06 10:12:50;;;;;;;9.00;6.53;;;16.70;84.70;;;;;;5073886;28;20201;-59
2024/03/06 10:15:17;;;;;;;7.67;5.33;;;16.70;85.20;;;;;;5072830;28;20252;-59
2024/03/06 10:17:49;;;;;;;6.57;5.47;;;16.70;83.10;;;;;;5070913;28;20287;-59
2024/03/06 10:20:21;;;;;;;6.93;5.17;;;16.60;81.40;;;;;;5072432;28;20208;-59
2024/03/06 10:22:53;;;;;;;7.63;5.80;;;16.50;82.70;;;;;;5072901;28;20203;-60
2024/03/06 10:25:26;;;;;;;9.70;5.00;;;16.40;84.20;;;;;;5073490;28;20297;-59
2024/03/06 10:28:09;;;;;;;8.30;5.27;;;16.30;82.50;;;;;;5069809;28;20206;-59
2024/03/06 10:30:45;;;;;;;7.57;5.27;;;16.30;83.20;;;;;;5074109;28;20206;-59
2024/03/06 10:33:13;;;;;;;7.53;5.30;;;16.40;84.10;;;;;;5072389;28;20309;-59
2024/03/06 10:35:45;;;;;;;6.53;4.43;;;16.40;83.70;;;;;;5073508;28;20663;-59
2024/03/06 10:38:12;;;;;;;7.73;4.60;;;16.40;82.90;;;;;;5072318;28;20257;-59
2024/03/06 10:40:42;;;;;;;8.73;5.17;;;16.40;83.40;;;;;;5073020;28;20214;-59
2024/03/06 10:43:10;;;;;;;9.20;5.10;;;16.30;82.60;;;;;;5072697;28;20204;-59
2024/03/06 10:46:06;;;;;;;5.53;3.57;;;16.40;83.60;;;;;;5073056;28;20195;-59
2024/03/06 10:48:34;;;;;;;6.40;3.60;;;16.40;82.40;;;;;;5072670;28;20295;-59
2024/03/06 10:51:03;;;;;;;5.67;2.20;;;16.40;81.50;;;;;;5071295;28;20198;-59
2024/03/06 10:53:32;;;;;;;3.70;1.90;;;16.50;81.80;;;;;;5072599;28;20539;-59
2024/03/06 10:56:00;;;;;;;4.43;2.67;;;16.70;81.60;;;;;;5069510;28;20902;-59
2024/03/06 10:58:29;;;;;;;4.57;2.53;;;16.80;80.40;;;;;;5069849;28;20213;-59
2024/03/06 11:00:57;;;;;;;2.93;2.23;;;17.00;77.20;;;;;;5070954;28;20200;-59
2024/03/06 11:03:26;;;;;;;4.30;2.13;;;17.00;75.70;;;;;;5072715;28;20215;-59
2024/03/06 11:05:53;;;;;;;6.30;2.90;;;17.00;75.90;;;;;;5069205;28;20201;-59
2024/03/06 11:08:21;;;;;;;6.37;2.93;;;17.00;77.70;;;;;;5071989;28;20195;-59
2024/03/06 11:10:48;;;;;;;3.77;2.30;;;17.20;77.90;;;;;;5072876;28;21077;-59
2024/03/06 11:13:25;;;;;;;4.57;2.13;;;17.30;77.20;;;;;;5070491;28;20205;-59
2024/03/06 11:15:57;;;;;;;2.13;1.90;;;17.50;77.10;;;;;;5069848;28;20283;-59
2024/03/06 11:18:33;;;;;;;3.60;2.60;;;17.70;76.60;;;;;;5072185;28;20197;-59
2024/03/06 11:21:03;;;;;;;5.53;3.10;;;17.90;76.60;;;;;;5070214;28;20206;-59
2024/03/06 11:23:31;;;;;;;4.67;2.77;;;18.10;75.60;;;;;;5071571;28;20700;-59
2024/03/06 11:26:05;;;;;;;5.30;3.13;;;18.30;74.70;;;;;;5071091;28;20633;-59
2024/03/06 11:28:35;;;;;;;8.30;3.50;;;18.20;72.20;;;;;;5070323;28;20247;-59
2024/03/06 11:31:05;;;;;;;4.80;3.40;;;18.00;72.60;;;;;;5072202;28;20698;-59
2024/03/06 11:33:40;;;;;;;4.87;2.87;;;17.70;72.50;;;;;;5069300;28;20196;-60
2024/03/06 11:36:30;;;;;;;2.93;2.27;;;17.40;74.40;;;;;;5068699;28;20505;-60
2024/03/06 11:38:59;;;;;;;6.73;3.07;;;17.20;73.60;;;;;;5071069;28;20281;-59
2024/03/06 11:41:31;;;;;;;4.97;2.30;;;17.00;73.80;;;;;;5068296;28;20275;-59
2024/03/06 11:44:02;;;;;;;3.93;1.80;;;17.00;74.60;;;;;;5069620;28;20224;-59
2024/03/06 11:46:47;;;;;;;3.40;2.13;;;17.10;75.40;;;;;;5069797;28;20231;-60
2024/03/06 11:49:20;;;;;;;5.10;2.67;;;17.30;75.20;;;;;;5070724;28;20187;-59
2024/03/06 11:51:48;;;;;;;3.87;2.20;;;17.60;73.60;;;;;;5070889;28;20497;-59
2024/03/06 11:54:17;;;;;;;5.77;2.33;;;17.60;74.20;;;;;;5070265;28;20638;-60
2024/03/06 11:56:50;;;;;;;5.73;2.10;;;17.60;74.50;;;;;;5071199;28;20229;-59
2024/03/06 11:59:20;;;;;;;2.63;1.43;;;17.50;74.50;;;;;;5070529;28;20705;-60
2024/03/06 12:01:47;;;;;;;1.50;1.23;;;17.40;74.40;;;;;;5068756;28;20203;-60
2024/03/06 12:04:14;;;;;;;5.77;1.37;;;17.20;74.80;;;;;;5067869;28;20213;-59
2024/03/06 12:06:42;;;;;;;3.37;1.30;;;17.00;74.90;;;;;;5069170;28;20197;-59
2024/03/06 12:09:10;;;;;;;1.20;1.10;;;16.90;75.20;;;;;;5066695;28;20208;-59
2024/03/06 12:11:38;;;;;;;2.07;1.27;;;16.70;75.50;;;;;;5068619;28;20579;-59
2024/03/06 12:14:05;;;;;;;3.83;1.50;;;16.60;75.90;;;;;;5066919;28;20281;-59
2024/03/06 12:16:33;;;;;;;3.27;1.30;;;16.60;76.80;;;;;;5072621;28;20248;-59
2024/03/06 12:19:00;;;;;;;4.40;2.00;;;16.50;76.90;;;;;;5075211;28;20202;-60
2024/03/06 12:21:34;;;;;;;3.70;1.80;;;16.50;77.10;;;;;;5075106;28;21484;-60
2024/03/06 12:24:06;;;;;;;2.87;1.70;;;16.50;77.20;;;;;;5090284;28;20221;-60
2024/03/06 12:26:33;;;;;;;6.67;2.40;;;16.50;77.00;;;;;;5072372;28;20586;-60
2024/03/06 12:29:08;;;;;;;6.80;2.43;;;16.60;76.60;;;;;;5074145;28;20201;-60
2024/03/06 12:31:37;;;;;;;4.13;2.00;;;16.80;76.50;;;;;;5073627;28;20647;-59
2024/03/06 12:34:06;;;;;;;2.63;2.20;;;17.10;75.50;;;;;;5073145;28;20209;-60
2024/03/06 12:36:34;;;;;;;3.77;2.20;;;17.40;74.80;;;;;;5074994;28;20225;-60
2024/03/06 12:39:03;;;;;;;4.43;2.10;;;17.60;74.00;;;;;;5074959;28;20206;-59
2024/03/06 12:41:30;;;;;;;2.83;1.90;;;17.60;73.50;;;;;;5071811;28;20635;-60
2024/03/06 12:43:57;;;;;;;3.90;1.60;;;17.50;73.00;;;;;;5075636;28;20212;-60
2024/03/06 12:46:26;;;;;;;3.43;1.50;;;17.50;73.20;;;;;;5073484;28;20204;-60
2024/03/06 12:48:53;;;;;;;3.17;2.43;;;17.40;70.80;;;;;;5073821;28;20205;-59
2024/03/06 12:51:20;;;;;;;9.97;4.53;;;17.40;70.10;;;;;;5074569;28;20280;-59
2024/03/06 12:53:48;;;;;;;6.53;3.63;;;17.40;71.40;;;;;;5072326;28;20207;-60
2024/03/06 12:56:15;;;;;;;8.07;3.00;;;17.10;70.90;;;;;;5073507;28;20202;-60
2024/03/06 12:58:43;;;;;;;9.90;3.93;;;16.90;71.10;;;;;;5073714;28;20693;-60